createdAt,value
2018-01-28T00:00:08.363Z,87.57
2018-01-28T00:02:37.520Z,82.15
2018-01-28T00:05:06.719Z,82.82
2018-01-28T00:07:36.239Z,78.43
2018-01-28T00:10:04.603Z,85.00
2018-01-28T00:12:33.785Z,84.47
2018-01-28T00:15:02.921Z,79.80
2018-01-28T00:17:31.327Z,78.18
2018-01-28T00:19:59.718Z,90.40
2018-01-28T00:22:28.086Z,75.93
2018-01-28T00:24:56.794Z,82.47
2018-01-28T00:27:25.835Z,82.88
2018-01-28T00:29:54.626Z,89.43
2018-01-28T00:32:22.988Z,89.22
2018-01-28T00:34:51.423Z,86.22
2018-01-28T00:37:21.204Z,83.93
2018-01-28T00:39:49.609Z,86.45
2018-01-28T00:42:18.013Z,86.50
2018-01-28T00:44:47.154Z,89.87
2018-01-28T00:47:15.946Z,87.72
2018-01-28T00:49:44.315Z,84.90
2018-01-28T00:52:12.681Z,79.95
2018-01-28T00:54:41.534Z,81.32
2018-01-28T00:57:09.903Z,92.82
2018-01-28T00:59:38.292Z,84.85
2018-01-28T01:02:07.761Z,85.78
2018-01-28T01:04:36.173Z,83.18
2018-01-28T01:07:04.543Z,74.20
2018-01-28T01:09:32.923Z,89.87
2018-01-28T01:12:01.327Z,80.43
2018-01-28T01:14:29.714Z,76.78
2018-01-28T01:16:58.232Z,70.57
2018-01-28T01:19:26.675Z,69.50
2018-01-28T01:21:56.207Z,71.82
2018-01-28T01:24:24.632Z,77.28
2018-01-28T01:26:54.499Z,72.80
2018-01-28T01:29:22.889Z,72.43
2018-01-28T01:31:52.273Z,67.62
2018-01-28T01:34:20.875Z,67.25
2018-01-28T01:36:49.269Z,75.55
2018-01-28T01:39:17.830Z,68.75
2018-01-28T01:41:46.230Z,61.60
2018-01-28T01:44:14.580Z,68.28
2018-01-28T01:46:43.686Z,66.68
2018-01-28T01:49:30.077Z,58.05
2018-01-28T01:51:58.482Z,54.03
2018-01-28T01:54:27.495Z,54.92
2018-01-28T01:56:57.042Z,59.15
2018-01-28T01:59:25.495Z,57.30
2018-01-28T02:01:54.867Z,58.65
2018-01-28T02:04:23.591Z,54.47
2018-01-28T02:06:54.151Z,53.55
2018-01-28T02:09:23.084Z,57.90
2018-01-28T02:11:52.010Z,54.22
2018-01-28T02:14:21.051Z,57.40
2018-01-28T02:16:50.743Z,58.53
2018-01-28T02:19:19.904Z,51.50
2018-01-28T02:21:49.946Z,47.40
2018-01-28T02:24:19.096Z,46.92
2018-01-28T02:26:47.457Z,49.97
2018-01-28T02:29:15.821Z,50.58
2018-01-28T02:31:44.208Z,50.22
2018-01-28T02:34:12.578Z,56.10
2018-01-28T02:36:40.982Z,48.20
2018-01-28T02:39:09.360Z,42.90
2018-01-28T02:41:37.771Z,50.80
2018-01-28T02:44:07.195Z,47.28
2018-01-28T02:46:35.569Z,42.03
2018-01-28T02:49:04.056Z,50.55
2018-01-28T02:51:32.429Z,51.75
2018-01-28T02:54:00.825Z,43.95
2018-01-28T02:56:29.195Z,50.08
2018-01-28T02:58:57.613Z,47.88
2018-01-28T03:01:25.973Z,46.17
2018-01-28T03:03:54.424Z,47.10
2018-01-28T03:06:22.828Z,47.95
2018-01-28T03:08:51.205Z,43.25
2018-01-28T03:11:19.608Z,43.60
2018-01-28T03:13:48.737Z,45.67
2018-01-28T03:16:17.454Z,45.63
2018-01-28T03:18:45.818Z,40.55
2018-01-28T03:21:14.181Z,40.92
2018-01-28T03:23:42.586Z,37.90
2018-01-28T03:26:10.947Z,41.83
2018-01-28T03:28:39.350Z,37.50
2018-01-28T03:31:07.833Z,36.42
2018-01-28T03:33:36.229Z,37.80
2018-01-28T03:36:04.610Z,41.22
2018-01-28T03:38:33.041Z,42.85
2018-01-28T03:41:01.433Z,35.40
2018-01-28T03:43:29.820Z,37.78
2018-01-28T03:45:58.205Z,41.65
2018-01-28T03:48:26.567Z,37.38
2018-01-28T03:50:55.162Z,35.55
2018-01-28T03:53:23.539Z,37.03
2018-01-28T03:55:51.914Z,36.13
2018-01-28T03:58:20.294Z,37.20
2018-01-28T04:00:48.653Z,40.38
2018-01-28T04:03:17.117Z,38.95
2018-01-28T04:05:45.493Z,36.55
2018-01-28T04:08:14.957Z,37.75
2018-01-28T04:10:43.317Z,32.17
2018-01-28T04:13:11.678Z,40.60
2018-01-28T04:15:40.070Z,35.95
2018-01-28T04:18:08.434Z,40.70
2018-01-28T04:20:36.825Z,38.30
2018-01-28T04:23:05.189Z,35.72
2018-01-28T04:25:33.893Z,33.92
2018-01-28T04:28:02.261Z,37.17
2018-01-28T04:30:30.629Z,36.15
2018-01-28T04:32:59.013Z,30.05
2018-01-28T04:35:27.377Z,27.85
2018-01-28T04:37:55.769Z,30.48
2018-01-28T04:40:24.141Z,32.50
2018-01-28T04:42:52.849Z,25.70
2018-01-28T04:45:21.214Z,29.48
2018-01-28T04:47:49.588Z,29.90
2018-01-28T04:50:17.973Z,33.88
2018-01-28T04:52:46.337Z,31.58
2018-01-28T04:55:14.732Z,28.62
2018-01-28T04:57:43.104Z,30.92
2018-01-28T05:00:11.897Z,32.63
2018-01-28T05:02:40.266Z,31.35
2018-01-28T05:05:08.629Z,33.85
2018-01-28T05:07:37.026Z,31.23
2018-01-28T05:10:05.404Z,31.23
2018-01-28T05:12:33.804Z,33.85
2018-01-28T05:15:02.173Z,33.25
2018-01-28T05:17:30.589Z,32.50
2018-01-28T05:19:58.967Z,31.12
2018-01-28T05:22:28.256Z,34.88
2018-01-28T05:24:56.649Z,35.22
2018-01-28T05:27:25.026Z,30.95
2018-01-28T05:29:53.425Z,34.80
2018-01-28T05:32:22.548Z,36.72
2018-01-28T05:34:51.136Z,32.53
2018-01-28T05:37:19.497Z,35.10
2018-01-28T05:39:47.861Z,31.92
2018-01-28T05:42:17.132Z,41.80
2018-01-28T05:44:45.501Z,41.80
2018-01-28T05:47:13.892Z,30.75
2018-01-28T05:49:43.022Z,34.28
2018-01-28T05:52:11.427Z,33.50
2018-01-28T05:54:39.788Z,35.78
2018-01-28T05:57:08.158Z,40.72
2018-01-28T05:59:36.545Z,30.98
2018-01-28T06:02:04.924Z,37.63
2018-01-28T06:04:33.305Z,34.88
2018-01-28T06:07:01.668Z,35.70
2018-01-28T06:09:31.133Z,38.08
2018-01-28T06:11:59.489Z,40.28
2018-01-28T06:14:27.857Z,35.30
2018-01-28T06:16:56.264Z,43.97
2018-01-28T06:19:24.899Z,41.33
2018-01-28T06:21:53.280Z,37.55
2018-01-28T06:24:22.122Z,38.33
2018-01-28T06:26:50.550Z,35.03
2018-01-28T06:29:18.924Z,36.83
2018-01-28T06:31:47.721Z,38.70
2018-01-28T06:34:16.920Z,32.92
2018-01-28T06:36:45.286Z,35.03
2018-01-28T06:39:13.670Z,38.35
2018-01-28T06:41:42.033Z,37.65
2018-01-28T06:44:11.808Z,35.13
2018-01-28T06:46:40.174Z,36.28
2018-01-28T06:49:08.546Z,32.75
2018-01-28T06:51:37.002Z,33.88
2018-01-28T06:54:05.361Z,35.40
2018-01-28T06:56:34.514Z,35.92
2018-01-28T06:59:02.878Z,36.65
2018-01-28T07:01:31.237Z,31.05
2018-01-28T07:04:00.086Z,33.08
2018-01-28T07:06:29.667Z,33.50
2018-01-28T07:08:58.057Z,32.78
2018-01-28T07:11:26.447Z,33.83
2018-01-28T07:13:54.839Z,32.53
2018-01-28T07:16:23.964Z,33.50
2018-01-28T07:18:52.327Z,28.80
2018-01-28T07:21:20.721Z,33.72
2018-01-28T07:23:49.096Z,34.80
2018-01-28T07:26:17.476Z,29.12
2018-01-28T07:28:45.849Z,32.55
2018-01-28T07:31:14.442Z,33.45
2018-01-28T07:33:42.814Z,30.80
2018-01-28T07:36:11.193Z,29.77
2018-01-28T07:38:39.582Z,33.90
2018-01-28T07:41:07.970Z,29.52
2018-01-28T07:43:36.358Z,27.62
2018-01-28T07:46:04.737Z,25.83
2018-01-28T07:48:33.403Z,25.77
2018-01-28T07:51:01.791Z,27.65
2018-01-28T07:53:30.155Z,25.95
2018-01-28T07:55:58.537Z,28.95
2018-01-28T07:58:26.918Z,27.13
2018-01-28T08:00:55.297Z,29.63
2018-01-28T08:03:23.665Z,28.05
2018-01-28T08:05:52.353Z,28.65
2018-01-28T08:08:23.133Z,24.10
2018-01-28T08:10:51.529Z,28.00
2018-01-28T08:16:22.486Z,31.70
2018-01-28T08:18:51.685Z,29.87
2018-01-28T08:21:20.889Z,37.22
2018-01-28T08:23:49.266Z,22.50
2018-01-28T08:26:18.409Z,28.38
2018-01-28T08:28:48.561Z,30.70
2018-01-28T08:31:16.968Z,31.85
2018-01-28T08:33:45.406Z,32.92
2018-01-28T08:36:14.006Z,32.13
2018-01-28T08:38:42.413Z,30.35
2018-01-28T08:41:11.627Z,26.90
2018-01-28T08:43:40.217Z,34.08
2018-01-28T08:46:08.586Z,29.20
2018-01-28T08:48:36.963Z,29.02
2018-01-28T08:51:05.353Z,26.75
2018-01-28T08:53:34.272Z,31.00
2018-01-28T08:56:02.727Z,30.67
2018-01-28T08:58:32.138Z,30.65
2018-01-28T09:01:00.725Z,29.35
2018-01-28T09:03:29.366Z,31.35
2018-01-28T09:05:59.847Z,34.17
2018-01-28T09:08:29.042Z,29.55
2018-01-28T09:10:57.413Z,29.60
2018-01-28T09:13:25.805Z,32.85
2018-01-28T09:15:54.173Z,33.50
2018-01-28T09:18:22.612Z,34.38
2018-01-28T09:20:50.989Z,35.58
2018-01-28T09:23:19.349Z,30.30
2018-01-28T09:25:48.605Z,39.78
2018-01-28T09:28:16.973Z,32.67
2018-01-28T09:30:45.373Z,33.00
2018-01-28T09:33:13.802Z,29.65
2018-01-28T09:35:42.418Z,31.10
2018-01-28T09:38:10.786Z,34.33
2018-01-28T09:40:39.484Z,27.87
2018-01-28T09:43:07.907Z,36.60
2018-01-28T09:45:36.268Z,30.83
2018-01-28T09:48:04.697Z,29.02
2018-01-28T09:50:33.077Z,30.35
2018-01-28T09:53:01.992Z,27.17
2018-01-28T09:55:30.746Z,30.73
2018-01-28T09:57:59.259Z,29.90
2018-01-28T10:00:28.150Z,27.65
2018-01-28T10:02:56.758Z,28.67
2018-01-28T10:05:25.536Z,28.98
2018-01-28T10:07:54.206Z,33.75
2018-01-28T10:10:23.509Z,26.23
2018-01-28T10:12:52.351Z,28.12
2018-01-28T10:15:21.389Z,28.42
2018-01-28T10:17:50.049Z,26.75
2018-01-28T10:20:19.016Z,24.52
2018-01-28T10:22:47.902Z,25.25
2018-01-28T10:25:18.694Z,25.60
2018-01-28T10:27:50.657Z,25.00
2018-01-28T10:30:22.938Z,20.90
2018-01-28T10:32:59.418Z,24.00
2018-01-28T10:35:33.360Z,20.80
2018-01-28T10:38:07.650Z,18.45
2018-01-28T10:40:40.402Z,17.30
2018-01-28T10:43:11.982Z,18.85
2018-01-28T10:45:42.449Z,17.58
2018-01-28T10:48:16.032Z,19.62
2018-01-28T10:50:47.680Z,13.93
2018-01-28T10:53:18.923Z,16.10
2018-01-28T10:55:50.032Z,18.85
2018-01-28T10:58:22.458Z,17.40
2018-01-28T11:00:56.426Z,20.23
2018-01-28T11:03:35.035Z,21.08
2018-01-28T11:06:07.129Z,21.25
2018-01-28T11:08:36.223Z,21.50
2018-01-28T11:11:09.254Z,20.75
2018-01-28T11:13:38.258Z,19.65
2018-01-28T11:16:06.630Z,20.75
2018-01-28T11:18:35.429Z,19.52
2018-01-28T11:21:03.857Z,19.67
2018-01-28T11:23:33.764Z,21.12
2018-01-28T11:26:04.429Z,21.40
2018-01-28T11:28:33.366Z,21.75
2018-01-28T11:31:04.886Z,20.90
2018-01-28T11:33:35.785Z,19.85
2018-01-28T11:36:06.207Z,19.33
2018-01-28T11:38:37.187Z,19.33
2018-01-28T11:41:07.352Z,27.15
2018-01-28T11:43:36.317Z,16.75
2018-01-28T11:46:09.084Z,17.25
2018-01-28T11:48:40.299Z,16.92
2018-01-28T11:51:16.453Z,17.60
2018-01-28T11:53:56.744Z,16.52
2018-01-28T11:56:34.948Z,16.48
2018-01-28T11:59:09.778Z,19.75
2018-01-28T12:01:43.963Z,17.75
2018-01-28T12:04:20.796Z,19.60
2018-01-28T12:06:57.968Z,18.12
2018-01-28T12:09:34.979Z,21.52
2018-01-28T12:12:12.237Z,17.20
2018-01-28T12:14:45.986Z,15.50
2018-01-28T12:17:23.600Z,19.48
2018-01-28T12:19:52.249Z,12.93
2018-01-28T12:22:27.958Z,13.25
2018-01-28T12:25:02.123Z,15.55
2018-01-28T12:27:33.826Z,21.35
2018-01-28T12:30:05.631Z,17.37
2018-01-28T12:32:39.534Z,14.95
2018-01-28T12:35:12.610Z,15.20
2018-01-28T12:37:43.304Z,14.32
2018-01-28T12:40:18.111Z,13.65
2018-01-28T12:42:50.917Z,10.00
2018-01-28T12:45:22.339Z,11.68
2018-01-28T12:47:55.855Z,10.20
2018-01-28T12:50:28.129Z,9.23
2018-01-28T12:53:01.247Z,12.00
2018-01-28T12:55:32.310Z,8.77
2018-01-28T12:58:03.881Z,11.55
2018-01-28T13:00:36.228Z,9.80
2018-01-28T13:03:07.144Z,11.40
2018-01-28T13:05:36.355Z,8.07
2018-01-28T13:08:04.965Z,11.50
2018-01-28T13:10:33.722Z,10.38
2018-01-28T13:13:02.163Z,15.73
2018-01-28T13:15:31.369Z,10.13
2018-01-28T13:17:59.739Z,12.43
2018-01-28T13:20:29.522Z,13.10
2018-01-28T13:22:58.676Z,10.40
2018-01-28T13:25:27.050Z,12.25
2018-01-28T13:27:55.439Z,9.00
2018-01-28T13:30:23.837Z,11.02
2018-01-28T13:32:52.570Z,11.02
2018-01-28T13:35:21.038Z,11.75
2018-01-28T13:37:51.518Z,9.88
2018-01-28T13:40:21.020Z,10.20
2018-01-28T13:42:49.694Z,12.57
2018-01-28T13:45:18.391Z,10.30
2018-01-28T13:47:47.214Z,10.93
2018-01-28T13:50:15.672Z,11.27
2018-01-28T13:52:45.116Z,10.13
2018-01-28T13:55:13.847Z,10.00
2018-01-28T13:57:43.737Z,11.32
2018-01-28T14:00:12.100Z,11.40
2018-01-28T14:02:41.262Z,11.18
2018-01-28T14:05:09.796Z,11.20
2018-01-28T14:07:38.193Z,12.52
2018-01-28T14:10:06.609Z,11.52
2018-01-28T14:12:35.272Z,11.55
2018-01-28T14:15:03.801Z,9.35
2018-01-28T14:17:32.738Z,8.75
2018-01-28T14:20:01.226Z,10.68
2018-01-28T14:22:29.839Z,12.90
2018-01-28T14:24:58.494Z,13.32
2018-01-28T14:27:26.905Z,18.00
2018-01-28T14:29:55.343Z,15.35
2018-01-28T14:32:23.738Z,10.00
2018-01-28T14:34:52.207Z,13.75
2018-01-28T14:37:21.573Z,9.80
2018-01-28T14:39:49.953Z,9.23
2018-01-28T14:42:18.336Z,7.47
2018-01-28T14:44:46.929Z,7.25
2018-01-28T14:47:15.646Z,6.62
2018-01-28T14:49:44.530Z,10.48
2018-01-28T14:52:13.269Z,12.00
2018-01-28T14:54:41.966Z,6.30
2018-01-28T14:57:10.817Z,5.82
2018-01-28T14:59:39.228Z,7.30
2018-01-28T15:02:08.222Z,7.90
2018-01-28T15:04:36.673Z,6.60
2018-01-28T15:07:05.097Z,11.55
2018-01-28T15:09:33.557Z,7.40
2018-01-28T15:12:01.971Z,9.13
2018-01-28T15:14:30.526Z,6.80
2018-01-28T15:16:59.140Z,6.85
2018-01-28T15:19:27.501Z,8.50
2018-01-28T15:21:56.001Z,8.70
2018-01-28T15:24:24.365Z,8.55
2018-01-28T15:26:52.949Z,5.65
2018-01-28T15:29:21.461Z,8.05
2018-01-28T15:31:50.131Z,7.18
2018-01-28T15:34:19.064Z,7.30
2018-01-28T15:36:48.368Z,10.50
2018-01-28T15:39:18.029Z,6.20
2018-01-28T15:41:46.661Z,9.07
2018-01-28T15:44:15.978Z,7.35
2018-01-28T15:46:45.418Z,5.57
2018-01-28T15:49:14.306Z,4.32
2018-01-28T15:51:43.031Z,7.40
2018-01-28T15:54:11.997Z,3.87
2018-01-28T15:56:41.693Z,8.85
2018-01-28T15:59:10.281Z,4.80
2018-01-28T16:01:39.014Z,5.97
2018-01-28T16:04:08.644Z,9.98
2018-01-28T16:06:38.096Z,4.85
2018-01-28T16:09:06.677Z,5.25
2018-01-28T16:11:35.068Z,5.53
2018-01-28T16:14:04.009Z,6.47
2018-01-28T16:16:33.038Z,4.78
2018-01-28T16:19:01.707Z,8.30
2018-01-28T16:21:30.088Z,6.80
2018-01-28T16:23:58.672Z,3.97
2018-01-28T16:26:27.149Z,5.37
2018-01-28T16:28:55.750Z,4.18
2018-01-28T16:31:24.752Z,6.50
2018-01-28T16:33:54.394Z,4.55
2018-01-28T16:36:23.331Z,4.97
2018-01-28T16:38:51.860Z,6.70
2018-01-28T16:41:21.021Z,6.35
2018-01-28T16:43:49.543Z,7.60
2018-01-28T16:46:19.481Z,11.77
2018-01-28T16:48:47.984Z,4.95
2018-01-28T16:51:16.818Z,5.15
2018-01-28T16:53:45.353Z,7.00
2018-01-28T16:56:15.011Z,8.25
2018-01-28T16:58:44.897Z,11.02
2018-01-28T17:01:13.440Z,6.95
2018-01-28T17:03:42.255Z,5.30
2018-01-28T17:06:11.183Z,6.75
2018-01-28T17:08:41.117Z,7.80
2018-01-28T17:11:09.984Z,6.40
2018-01-28T17:13:39.035Z,4.30
2018-01-28T17:16:08.437Z,7.75
2018-01-28T17:18:37.378Z,5.47
2018-01-28T17:21:07.139Z,4.35
2018-01-28T17:23:36.321Z,13.65
2018-01-28T17:26:04.803Z,9.38
2018-01-28T17:28:33.734Z,5.87
2018-01-28T17:31:03.389Z,6.75
2018-01-28T17:33:33.634Z,5.60
2018-01-28T17:36:02.423Z,12.02
2018-01-28T17:38:31.718Z,9.23
2018-01-28T17:41:01.131Z,6.78
2018-01-28T17:43:30.172Z,4.85
2018-01-28T17:46:00.649Z,7.95
2018-01-28T17:48:29.535Z,12.40
2018-01-28T17:50:58.500Z,5.55
2018-01-28T17:53:28.372Z,10.15
2018-01-28T17:55:58.083Z,6.28
2018-01-28T17:58:27.951Z,6.53
2018-01-28T18:00:57.401Z,5.87
2018-01-28T18:03:28.074Z,11.90
2018-01-28T18:05:58.126Z,8.75
2018-01-28T18:08:27.729Z,7.37
2018-01-28T18:10:57.763Z,6.28
2018-01-28T18:13:28.145Z,6.45
2018-01-28T18:15:57.169Z,6.68
2018-01-28T18:18:27.997Z,8.27
2018-01-28T18:20:56.908Z,9.40
2018-01-28T18:23:27.295Z,7.55
2018-01-28T18:25:56.393Z,6.97
2018-01-28T18:28:25.418Z,8.05
2018-01-28T18:30:55.793Z,7.05
2018-01-28T18:33:25.202Z,7.20
2018-01-28T18:35:54.393Z,10.18
2018-01-28T18:38:23.429Z,8.48
2018-01-28T18:40:52.319Z,8.52
2018-01-28T18:43:24.078Z,10.93
2018-01-28T18:45:53.386Z,11.80
2018-01-28T18:48:23.642Z,8.40
2018-01-28T18:50:53.259Z,19.05
2018-01-28T18:53:22.027Z,8.68
2018-01-28T18:55:51.304Z,10.40
2018-01-28T18:58:20.287Z,9.73
2018-01-28T19:00:49.236Z,10.52
2018-01-28T19:03:17.876Z,6.78
2018-01-28T19:05:47.145Z,8.35
2018-01-28T19:08:15.831Z,7.40
2018-01-28T19:10:44.237Z,10.82
2018-01-28T19:13:12.748Z,6.60
2018-01-28T19:15:41.120Z,7.40
2018-01-28T19:18:10.817Z,7.03
2018-01-28T19:20:40.247Z,7.62
2018-01-28T19:23:09.588Z,6.03
2018-01-28T19:25:38.281Z,10.43
2018-01-28T19:28:06.666Z,9.55
2018-01-28T19:30:35.153Z,9.32
2018-01-28T19:33:04.952Z,5.93
2018-01-28T19:35:33.615Z,10.20
2018-01-28T19:38:02.408Z,7.20
2018-01-28T19:40:30.862Z,7.60
2018-01-28T19:43:00.357Z,10.35
2018-01-28T19:45:28.852Z,6.60
2018-01-28T19:47:57.492Z,17.40
2018-01-28T19:50:26.746Z,18.27
2018-01-28T19:52:55.568Z,7.47
2018-01-28T19:55:24.006Z,7.28
2018-01-28T19:57:52.834Z,7.47
2018-01-28T20:00:21.665Z,7.75
2018-01-28T20:02:51.533Z,7.72
2018-01-28T20:05:21.645Z,10.93
2018-01-28T20:07:50.726Z,9.30
2018-01-28T20:10:19.179Z,8.90
2018-01-28T20:12:47.606Z,11.43
2018-01-28T20:15:16.621Z,8.35
2018-01-28T20:17:46.044Z,10.10
2018-01-28T20:20:14.530Z,9.77
2018-01-28T20:22:44.091Z,10.07
2018-01-28T20:25:14.106Z,7.80
2018-01-28T20:27:43.774Z,7.78
2018-01-28T20:30:14.076Z,6.65
2018-01-28T20:32:43.776Z,10.70
2018-01-28T20:35:12.304Z,7.40
2018-01-28T20:37:40.693Z,11.75
2018-01-28T20:40:09.076Z,9.93
2018-01-28T20:42:37.620Z,9.90
2018-01-28T20:45:06.770Z,8.32
2018-01-28T20:47:35.434Z,10.50
2018-01-28T20:50:04.140Z,11.75
2018-01-28T20:52:33.673Z,9.52
2018-01-28T20:55:03.147Z,8.55
2018-01-28T20:57:31.561Z,9.05
2018-01-28T21:00:00.192Z,7.78
2018-01-28T21:02:28.937Z,8.07
2018-01-28T21:04:58.580Z,11.63
2018-01-28T21:07:27.599Z,10.35
2018-01-28T21:09:56.465Z,14.02
2018-01-28T21:12:25.546Z,9.43
2018-01-28T21:14:54.648Z,7.72
2018-01-28T21:17:23.754Z,12.32
2018-01-28T21:19:52.702Z,10.02
2018-01-28T21:22:22.182Z,10.18
2018-01-28T21:24:52.066Z,9.70
2018-01-28T21:27:21.077Z,10.95
2018-01-28T21:29:51.356Z,9.63
2018-01-28T21:32:20.266Z,11.50
2018-01-28T21:34:49.090Z,9.82
2018-01-28T21:37:19.785Z,9.40
2018-01-28T21:39:49.031Z,9.13
2018-01-28T21:42:18.192Z,13.02
2018-01-28T21:44:46.921Z,9.00
2018-01-28T21:47:16.741Z,10.25
2018-01-28T21:49:45.889Z,10.80
2018-01-28T21:52:15.532Z,13.52
2018-01-28T21:54:44.236Z,10.93
2018-01-28T21:57:13.330Z,11.93
2018-01-28T21:59:42.598Z,16.00
2018-01-28T22:02:12.300Z,11.00
2018-01-28T22:04:40.720Z,14.43
2018-01-28T22:07:09.085Z,9.05
2018-01-28T22:09:37.634Z,10.10
2018-01-28T22:12:06.089Z,9.55
2018-01-28T22:14:34.729Z,10.15
2018-01-28T22:17:03.180Z,12.93
2018-01-28T22:19:31.541Z,12.27
2018-01-28T22:21:59.992Z,9.30
2018-01-28T22:24:30.051Z,12.50
2018-01-28T22:26:58.647Z,13.95
2018-01-28T22:29:27.038Z,10.18
2018-01-28T22:31:55.432Z,14.27
2018-01-28T22:34:23.809Z,9.25
2018-01-28T22:36:52.440Z,11.65
2018-01-28T22:39:21.010Z,8.77
2018-01-28T22:41:49.403Z,16.48
2018-01-28T22:44:17.782Z,11.75
2018-01-28T22:46:46.148Z,11.75
2018-01-28T22:49:14.753Z,13.02
2018-01-28T22:51:43.137Z,11.75
2018-01-28T22:54:11.493Z,15.30
2018-01-28T22:56:39.881Z,9.70
2018-01-28T22:59:08.238Z,10.40
2018-01-28T23:01:37.384Z,10.55
2018-01-28T23:04:05.741Z,12.15
2018-01-28T23:06:34.624Z,9.57
2018-01-28T23:09:03.000Z,9.68
2018-01-28T23:11:31.364Z,10.07
2018-01-28T23:14:00.512Z,12.25
2018-01-28T23:16:28.874Z,11.48
2018-01-28T23:18:57.269Z,10.35
2018-01-28T23:21:25.620Z,9.02
2018-01-28T23:23:54.121Z,10.73
2018-01-28T23:26:22.487Z,10.10
2018-01-28T23:28:50.845Z,11.50
2018-01-28T23:31:19.248Z,11.20
2018-01-28T23:33:47.617Z,10.30
2018-01-28T23:36:16.004Z,12.68
2018-01-28T23:38:44.429Z,10.50
2018-01-28T23:41:13.699Z,10.75
2018-01-28T23:43:42.071Z,10.00
2018-01-28T23:46:10.424Z,8.00
2018-01-28T23:48:38.799Z,7.87
2018-01-28T23:51:07.153Z,8.05
2018-01-28T23:53:36.310Z,7.12
2018-01-28T23:56:04.693Z,11.10
2018-01-28T23:58:33.115Z,10.60
